Time;durP1;ratioP1;P1;durP2;ratioP2;P2;SDS_P1;SDS_P2;PMS_P1;PMS_P2;Temp;Humidity;BMP_temperature;BMP_pressure;BME280_temperature;BME280_humidity;BME280_pressure;Samples;Min_cycle;Max_cycle;Signal;HPM_P1;HPM_P2
2022/10/14 00:00:09;;;;;;;941.90;878.30;;;;;;;11.12;68.29;101191.44;697561;28;21522;-61
2022/10/14 00:00:32;;;;;;;946.47;882.72;;;;;;;11.12;68.11;101186.84;693019;28;115016;-62
2022/10/14 00:00:54;;;;;;;927.40;864.25;;;;;;;11.13;68.48;101183.16;698464;28;23481;-63
2022/10/14 00:01:18;;;;;;;897.88;835.72;;;;;;;11.11;68.21;101185.19;698406;28;21528;-62
2022/10/14 00:01:39;;;;;;;926.25;863.03;;;;;;;11.14;68.33;101190.25;695194;28;114931;-63
2022/10/14 00:02:00;;;;;;;935.33;871.88;;;;;;;11.13;68.58;101185.00;698474;28;22407;-62
2022/10/14 00:02:23;;;;;;;938.63;875.00;;;;;;;11.13;68.56;101191.25;695840;28;22469;-63
2022/10/14 00:02:44;;;;;;;926.15;862.95;;;;;;;11.14;68.59;101190.25;697100;28;44362;-62
2022/10/14 00:03:05;;;;;;;929.90;866.67;;;;;;;11.15;68.61;101191.91;697735;28;44369;-62
2022/10/14 00:03:27;;;;;;;928.47;865.25;;;;;;;11.15;68.65;101189.22;697880;28;22435;-62
2022/10/14 00:03:49;;;;;;;919.60;856.75;;;;;;;11.15;68.48;101189.22;698124;28;23469;-61
2022/10/14 00:04:14;;;;;;;905.03;842.53;;;;;;;11.16;68.82;101193.63;694451;28;136409;-62
2022/10/14 00:04:35;;;;;;;927.25;864.17;;;;;;;11.16;68.40;101190.91;698503;28;22326;-62
2022/10/14 00:04:56;;;;;;;924.78;861.78;;;;;;;11.16;68.62;101181.97;697694;28;45251;-62
2022/10/14 00:05:18;;;;;;;913.35;850.65;;;;;;;11.16;68.56;101188.22;698443;28;22405;-62
2022/10/14 00:05:40;;;;;;;923.58;860.58;;;;;;;11.16;68.77;101196.31;694727;28;45001;-62
2022/10/14 00:06:11;;;;;;;913.40;850.78;;;;;;;11.16;68.80;101188.22;694312;28;61556;-62
2022/10/14 00:06:32;;;;;;;911.67;849.17;;;;;;;11.18;68.45;101188.88;692459;28;115165;-62
2022/10/14 00:06:55;;;;;;;919.30;856.47;;;;;;;11.19;68.45;101192.44;694481;28;46320;-62
2022/10/14 00:07:16;;;;;;;921.92;858.55;;;;;;;11.18;68.54;101194.28;697454;28;36405;-62
2022/10/14 00:07:37;;;;;;;913.50;850.72;;;;;;;11.19;68.41;101192.44;698494;28;23436;-62
2022/10/14 00:07:58;;;;;;;912.85;850.15;;;;;;;11.19;68.77;101184.34;697997;28;22400;-62
2022/10/14 00:08:20;;;;;;;922.45;859.50;;;;;;;11.22;68.56;101191.25;695609;28;22386;-63
2022/10/14 00:08:42;;;;;;;930.50;867.22;;;;;;;11.21;68.76;101192.25;694618;28;44376;-62
2022/10/14 00:09:08;;;;;;;923.92;860.90;;;;;;;11.22;68.94;101186.66;692026;28;128342;-62
2022/10/14 00:09:30;;;;;;;925.80;862.75;;;;;;;11.24;68.81;101191.91;694862;28;46330;-62
2022/10/14 00:09:52;;;;;;;936.92;873.65;;;;;;;11.23;68.67;101191.06;695714;28;23478;-62
2022/10/14 00:10:13;;;;;;;917.92;855.08;;;;;;;11.23;68.77;101190.25;695682;28;18336;-63
2022/10/14 00:10:38;;;;;;;919.03;856.15;;;;;;;11.24;68.67;101189.19;695710;28;23393;-62
2022/10/14 00:11:04;;;;;;;925.50;862.40;;;;;;;11.24;68.49;101195.47;692508;28;115288;-62
2022/10/14 00:11:29;;;;;;;929.70;866.40;;;;;;;11.24;68.58;101189.19;691522;28;136479;-62
2022/10/14 00:11:50;;;;;;;922.92;859.70;;;;;;;11.24;68.37;101192.78;692998;28;92310;-62
2022/10/14 00:12:11;;;;;;;921.08;857.83;;;;;;;11.19;68.40;101178.94;695345;28;23271;-62
2022/10/14 00:12:33;;;;;;;927.40;864.20;;;;;;;11.22;68.12;101183.13;695710;28;21546;-62
2022/10/14 00:12:54;;;;;;;918.72;855.83;;;;;;;11.23;67.94;101185.66;694891;28;46360;-62
2022/10/14 00:13:16;;;;;;;908.90;846.30;;;;;;;11.23;68.30;101179.44;695695;28;21285;-62
2022/10/14 00:13:38;;;;;;;916.55;853.67;;;;;;;11.25;68.15;101183.63;694562;28;46321;-62
2022/10/14 00:14:00;;;;;;;908.85;846.17;;;;;;;11.26;67.80;101177.22;694900;28;45311;-62
2022/10/14 00:14:22;;;;;;;914.40;851.50;;;;;;;11.27;67.85;101189.72;693649;28;67489;-64
2022/10/14 00:14:44;;;;;;;905.85;843.42;;;;;;;11.28;67.67;101186.00;694744;28;46340;-62
2022/10/14 00:15:06;;;;;;;900.70;838.28;;;;;;;11.29;68.00;101189.56;696624;28;46366;-62
2022/10/14 00:15:28;;;;;;;912.97;850.25;;;;;;;11.30;67.92;101188.53;697161;28;44215;-62
2022/10/14 00:15:49;;;;;;;912.25;849.55;;;;;;;11.30;67.67;101183.13;698298;28;21539;-62
2022/10/14 00:16:21;;;;;;;912.00;849.25;;;;;;;11.28;67.89;101188.69;696502;28;69521;-61
2022/10/14 00:16:44;;;;;;;918.28;855.35;;;;;;;11.28;67.90;101186.00;694491;28;137712;-62
2022/10/14 00:17:06;;;;;;;911.03;848.22;;;;;;;11.29;67.88;101176.03;696306;28;67498;-62
2022/10/14 00:17:27;;;;;;;915.53;852.55;;;;;;;11.29;67.87;101186.84;697496;28;46405;-63
2022/10/14 00:17:50;;;;;;;916.20;853.35;;;;;;;11.29;67.38;101178.75;697967;28;23450;-62
2022/10/14 00:18:11;;;;;;;900.58;838.33;;;;;;;11.26;67.88;101170.97;697448;28;46199;-63
2022/10/14 00:18:32;;;;;;;900.55;838.22;;;;;;;11.28;67.64;101177.88;696703;28;45307;-63
2022/10/14 00:18:53;;;;;;;907.85;845.28;;;;;;;11.28;67.98;101174.34;698168;28;22396;-62
2022/10/14 00:19:15;;;;;;;914.05;851.35;;;;;;;11.28;68.15;101183.28;697096;28;23479;-62
2022/10/14 00:19:37;;;;;;;912.30;849.67;;;;;;;11.26;68.04;101176.38;695078;28;22408;-62
2022/10/14 00:19:59;;;;;;;913.33;850.72;;;;;;;11.27;67.92;101170.81;694011;28;67486;-62
2022/10/14 00:20:20;;;;;;;909.70;847.20;;;;;;;11.26;67.77;101173.69;694807;28;45153;-63
2022/10/14 00:20:41;;;;;;;908.63;846.05;;;;;;;11.27;68.17;101176.22;695509;28;23456;-62
2022/10/14 00:21:03;;;;;;;903.20;840.80;;;;;;;11.26;68.33;101171.81;697519;28;24541;-63
2022/10/14 00:21:26;;;;;;;905.08;842.55;;;;;;;11.24;67.94;101172.97;697318;28;46329;-63
2022/10/14 00:21:48;;;;;;;919.70;856.65;;;;;;;11.26;67.98;101176.38;696581;28;67316;-63
2022/10/14 00:22:09;;;;;;;903.25;840.83;;;;;;;11.24;67.97;101176.56;697248;28;47478;-63
2022/10/14 00:22:30;;;;;;;916.17;853.28;;;;;;;11.25;68.25;101170.09;697145;28;22191;-63
2022/10/14 00:22:52;;;;;;;908.70;846.13;;;;;;;11.25;68.50;101174.69;695280;28;23417;-63
2022/10/14 00:23:15;;;;;;;909.35;846.75;;;;;;;11.24;68.18;101173.84;692841;28;92234;-63
2022/10/14 00:23:37;;;;;;;904.85;842.40;;;;;;;11.25;68.41;101172.81;695268;28;21367;-63
2022/10/14 00:23:58;;;;;;;909.13;846.50;;;;;;;11.23;68.17;101180.25;694887;28;46338;-61
2022/10/14 00:24:21;;;;;;;913.20;850.50;;;;;;;11.24;68.33;101167.56;694812;28;46364;-63
2022/10/14 00:24:42;;;;;;;908.15;845.55;;;;;;;11.24;68.70;101178.38;694628;28;46308;-63
2022/10/14 00:25:04;;;;;;;899.40;837.15;;;;;;;11.24;68.35;101175.69;695623;28;23458;-63
2022/10/14 00:25:27;;;;;;;890.90;828.90;;;;;;;11.23;68.39;101171.31;693896;28;69269;-63
2022/10/14 00:25:49;;;;;;;902.00;839.65;;;;;;;11.22;68.16;101166.91;695918;28;46312;-63
2022/10/14 00:26:17;;;;;;;904.58;842.15;;;;;;;11.19;68.22;101165.41;695978;28;92342;-63
2022/10/14 00:26:39;;;;;;;914.15;851.30;;;;;;;11.20;68.66;101177.06;694021;28;136371;-63
2022/10/14 00:27:00;;;;;;;915.83;852.72;;;;;;;11.18;68.09;101174.53;697110;28;46318;-63
2022/10/14 00:27:22;;;;;;;909.00;846.03;;;;;;;11.16;68.62;101171.16;697364;28;20605;-63
2022/10/14 00:27:44;;;;;;;900.08;837.65;;;;;;;11.14;68.54;101174.03;695735;28;22423;-62
2022/10/14 00:28:06;;;;;;;903.03;840.63;;;;;;;11.09;68.25;101164.72;694217;28;69432;-63
2022/10/14 00:28:27;;;;;;;906.03;843.53;;;;;;;11.13;68.55;101166.09;694765;28;23476;-63
2022/10/14 00:28:49;;;;;;;904.97;842.42;;;;;;;11.12;68.26;101173.34;694608;28;45710;-63
2022/10/14 00:29:13;;;;;;;904.58;842.15;;;;;;;11.07;68.60;101167.59;695539;28;21520;-64
2022/10/14 00:29:35;;;;;;;903.53;841.05;;;;;;;11.09;68.52;101167.44;691866;28;113550;-63
2022/10/14 00:29:56;;;;;;;892.92;831.03;;;;;;;11.08;68.10;101177.41;695517;28;22522;-63
2022/10/14 00:30:17;;;;;;;904.30;841.88;;;;;;;11.08;68.23;101173.84;695141;28;23198;-61
2022/10/14 00:30:38;;;;;;;898.88;836.58;;;;;;;11.07;68.19;101173.00;695271;28;22412;-60
2022/10/14 00:31:01;;;;;;;901.38;839.08;;;;;;;11.06;68.24;101179.41;694612;28;43675;-62
2022/10/14 00:31:23;;;;;;;900.03;837.63;;;;;;;11.06;68.20;101182.13;693593;28;69106;-61
2022/10/14 00:31:45;;;;;;;898.67;836.37;;;;;;;11.04;68.22;101175.22;694991;28;23503;-63
2022/10/14 00:32:06;;;;;;;899.47;837.20;;;;;;;11.02;68.06;101164.56;694340;28;45401;-62
2022/10/14 00:32:28;;;;;;;898.90;836.50;;;;;;;11.04;67.92;101181.47;695609;28;23433;-64
2022/10/14 00:32:49;;;;;;;901.67;839.25;;;;;;;11.02;67.98;101171.81;696377;28;67496;-62
2022/10/14 00:33:11;;;;;;;902.85;840.45;;;;;;;11.02;67.88;101174.53;698849;28;1034;-63
2022/10/14 00:33:32;;;;;;;906.28;843.75;;;;;;;11.03;68.39;101174.34;696976;28;46318;-62
2022/10/14 00:33:55;;;;;;;914.13;851.22;;;;;;;11.04;67.93;101172.50;693282;28;69725;-62
2022/10/14 00:34:17;;;;;;;896.88;834.58;;;;;;;11.02;67.98;101177.22;695461;28;21530;-63
2022/10/14 00:34:38;;;;;;;904.63;842.15;;;;;;;11.04;68.01;101184.16;694675;28;46391;-63
2022/10/14 00:35:00;;;;;;;905.10;842.58;;;;;;;11.03;68.46;101176.22;696066;28;22459;-63
2022/10/14 00:35:24;;;;;;;902.40;839.97;;;;;;;11.04;68.11;101178.75;695463;28;92399;-63
2022/10/14 00:35:52;;;;;;;914.72;851.90;;;;;;;10.95;68.07;101160.84;695101;28;46271;-63
2022/10/14 00:36:16;;;;;;;926.58;863.35;;;;;;;11.05;68.33;101175.03;694224;28;136258;-63
2022/10/14 00:36:39;;;;;;;919.78;856.80;;;;;;;11.05;68.16;101179.59;695704;28;92241;-63
2022/10/14 00:37:00;;;;;;;934.75;871.03;;;;;;;11.06;68.35;101175.88;695822;28;68521;-63
2022/10/14 00:37:21;;;;;;;936.17;872.20;;;;;;;11.05;68.54;101177.75;694687;28;22367;-62
2022/10/14 00:37:43;;;;;;;904.38;841.78;;;;;;;11.04;68.67;101172.50;697279;28;22372;-63
2022/10/14 00:38:04;;;;;;;890.88;828.80;;;;;;;11.05;68.31;101174.19;697283;28;45980;-63
2022/10/14 00:38:26;;;;;;;899.53;837.05;;;;;;;11.04;68.33;101177.91;695652;28;19206;-62
2022/10/14 00:38:47;;;;;;;927.28;864.10;;;;;;;11.04;68.31;101173.34;693694;28;66308;-63
2022/10/14 00:39:10;;;;;;;924.88;861.85;;;;;;;11.06;68.33;101176.72;695975;28;22414;-62
2022/10/14 00:39:32;;;;;;;927.05;863.97;;;;;;;11.06;68.19;101174.00;695622;28;92252;-63
2022/10/14 00:39:53;;;;;;;920.38;857.58;;;;;;;11.07;68.10;101172.19;698095;28;23472;-63
2022/10/14 00:40:19;;;;;;;914.38;851.67;;;;;;;11.07;68.44;101175.72;694992;28;116076;-63
2022/10/14 00:40:40;;;;;;;921.80;858.70;;;;;;;11.07;68.43;101175.72;697514;28;46268;-62
2022/10/14 00:41:04;;;;;;;929.28;865.95;;;;;;;11.07;68.45;101173.00;697628;28;45230;-64
2022/10/14 00:41:27;;;;;;;922.78;859.60;;;;;;;11.06;67.81;101173.19;696427;28;68943;-62
2022/10/14 00:41:49;;;;;;;910.60;847.83;;;;;;;11.06;68.31;101174.00;693784;28;69379;-62
2022/10/14 00:42:12;;;;;;;916.55;853.53;;;;;;;11.06;68.06;101179.41;691215;28;45277;-62
2022/10/14 00:42:33;;;;;;;933.30;869.70;;;;;;;11.03;68.25;101160.00;690875;28;65258;-63
2022/10/14 00:42:54;;;;;;;911.75;848.88;;;;;;;11.05;68.24;101168.78;690611;28;22403;-62
2022/10/14 00:43:16;;;;;;;897.10;834.78;;;;;;;11.02;68.37;101163.72;693056;28;21488;-63
2022/10/14 00:43:52;;;;;;;920.88;857.70;;;;;;;11.03;68.11;101171.66;691746;28;69655;-62
2022/10/14 00:44:52;;;;;;;899.28;836.92;;;;;;;11.03;68.42;101171.66;691438;28;135988;-62
2022/10/14 00:45:15;;;;;;;904.25;841.70;;;;;;;11.05;68.63;101169.63;692233;28;137819;-62
2022/10/14 00:45:36;;;;;;;916.80;853.83;;;;;;;11.05;68.36;101169.63;694747;28;67304;-64
2022/10/14 00:45:58;;;;;;;930.88;867.50;;;;;;;11.06;68.66;101174.00;694240;28;46450;-63
2022/10/14 00:46:19;;;;;;;926.17;862.95;;;;;;;11.07;68.50;101173.00;694583;28;44391;-63
2022/10/14 00:46:43;;;;;;;910.40;847.70;;;;;;;11.07;68.65;101170.31;695397;28;22455;-62
2022/10/14 00:47:04;;;;;;;914.40;851.33;;;;;;;11.08;68.42;101168.44;692340;28;92087;-63
2022/10/14 00:47:26;;;;;;;907.67;844.90;;;;;;;11.09;68.39;101180.94;692619;28;21537;-64
2022/10/14 00:47:51;;;;;;;910.95;848.15;;;;;;;11.09;68.08;101173.69;694886;28;1646;-63
2022/10/14 00:48:12;;;;;;;904.22;841.80;;;;;;;11.07;67.91;101170.31;695372;28;67477;-62
2022/10/14 00:48:33;;;;;;;910.92;848.22;;;;;;;11.08;67.91;101173.84;696115;28;45282;-62
2022/10/14 00:48:55;;;;;;;914.35;851.67;;;;;;;11.06;68.21;101167.78;698222;28;23459;-63
2022/10/14 00:49:19;;;;;;;903.92;841.45;;;;;;;11.06;67.90;101176.72;695276;28;46467;-63
2022/10/14 00:49:43;;;;;;;914.83;852.00;;;;;;;11.06;68.24;101179.41;692734;28;92147;-63
2022/10/14 00:50:05;;;;;;;920.97;857.95;;;;;;;11.05;67.88;101172.34;693063;28;92250;-62
2022/10/14 00:50:26;;;;;;;930.85;867.55;;;;;;;11.04;67.89;101176.06;695278;28;23634;-63
2022/10/14 00:50:50;;;;;;;920.92;858.00;;;;;;;11.02;67.96;101172.69;694647;28;45226;-61
2022/10/14 00:51:19;;;;;;;917.10;854.20;;;;;;;11.04;67.91;101175.22;696136;28;61388;-63
2022/10/14 00:51:47;;;;;;;920.55;857.42;;;;;;;11.01;67.88;101162.88;693688;28;137600;-61
2022/10/14 00:52:13;;;;;;;925.03;861.80;;;;;;;11.03;68.01;101171.66;694492;28;115228;-62
2022/10/14 00:52:34;;;;;;;921.70;858.63;;;;;;;11.04;67.99;101173.34;691130;28;137941;-63
2022/10/14 00:52:57;;;;;;;888.78;826.75;;;;;;;11.04;68.01;101169.81;695265;28;23444;-63
2022/10/14 00:53:19;;;;;;;898.60;836.30;;;;;;;11.04;68.14;101172.50;692756;28;91982;-63
2022/10/14 00:53:41;;;;;;;914.63;851.72;;;;;;;11.04;67.96;101169.81;696167;28;23175;-62
2022/10/14 00:54:03;;;;;;;919.58;856.67;;;;;;;11.04;67.78;101172.50;697205;28;46117;-63
2022/10/14 00:54:29;;;;;;;930.03;866.72;;;;;;;11.02;68.25;101172.69;698850;28;926;-63
2022/10/14 00:54:54;;;;;;;924.40;861.28;;;;;;;11.02;68.17;101171.81;694122;28;138201;-63
2022/10/14 00:55:17;;;;;;;923.55;860.45;;;;;;;11.02;67.85;101174.53;696136;28;67444;-63
2022/10/14 00:55:41;;;;;;;930.45;866.97;;;;;;;11.01;67.85;101168.28;695703;28;92284;-63
2022/10/14 00:56:08;;;;;;;922.17;859.05;;;;;;;10.99;68.05;101168.44;694317;28;137339;-63
2022/10/14 00:56:30;;;;;;;900.45;837.97;;;;;;;10.99;68.12;101171.16;693533;28;115097;-64
2022/10/14 00:56:51;;;;;;;900.28;837.88;;;;;;;10.97;67.93;101167.78;695249;28;22374;-62
2022/10/14 00:57:13;;;;;;;901.53;839.05;;;;;;;10.98;67.61;101174.03;694521;28;44171;-64
2022/10/14 00:57:36;;;;;;;910.17;847.55;;;;;;;10.96;67.85;101171.50;694372;28;44372;-63
2022/10/14 00:57:57;;;;;;;923.03;860.13;;;;;;;10.95;67.80;101171.66;694387;28;46315;-63
2022/10/14 00:58:18;;;;;;;924.90;861.75;;;;;;;10.95;68.00;101169.78;693295;28;45256;-63
2022/10/14 00:58:39;;;;;;;910.42;847.75;;;;;;;10.95;67.81;101166.25;694899;28;23479;-63
2022/10/14 00:59:03;;;;;;;898.15;835.92;;;;;;;10.94;67.73;101165.41;692176;28;22390;-62
2022/10/14 00:59:24;;;;;;;925.25;862.10;;;;;;;10.94;67.78;101167.25;688903;28;69201;-63
2022/10/14 00:59:45;;;;;;;933.40;870.00;;;;;;;10.92;67.52;101164.72;692656;28;21430;-64
2022/10/14 01:00:09;;;;;;;938.65;875.08;;;;;;;10.92;67.40;101162.00;693883;28;875;-64
2022/10/14 01:00:31;;;;;;;931.63;868.22;;;;;;;10.93;67.65;101165.59;693508;28;70169;-63
2022/10/14 01:00:52;;;;;;;927.75;864.45;;;;;;;10.87;67.36;101158.16;694339;28;69340;-63
2022/10/14 01:01:17;;;;;;;930.38;866.97;;;;;;;10.90;67.67;101163.22;693241;28;23498;-62
2022/10/14 01:01:39;;;;;;;917.60;854.58;;;;;;;10.89;67.79;101166.94;692168;28;115215;-62
2022/10/14 01:02:00;;;;;;;919.30;856.25;;;;;;;10.87;67.71;101164.38;695212;28;22360;-64
2022/10/14 01:02:22;;;;;;;925.92;862.67;;;;;;;10.89;67.80;101165.06;693973;28;46307;-63
2022/10/14 01:02:44;;;;;;;937.33;873.67;;;;;;;10.92;67.82;101167.41;695235;28;46350;-62
2022/10/14 01:03:08;;;;;;;928.75;865.47;;;;;;;10.93;67.86;101161.00;694488;28;46653;-63
2022/10/14 01:03:29;;;;;;;923.60;860.40;;;;;;;10.92;67.61;101163.88;689858;28;92021;-62
2022/10/14 01:03:51;;;;;;;936.17;872.55;;;;;;;10.97;67.64;101166.91;690084;28;22347;-62
2022/10/14 01:04:12;;;;;;;938.47;874.80;;;;;;;10.92;67.94;101156.63;686357;28;46429;-63
2022/10/14 01:04:34;;;;;;;928.65;865.38;;;;;;;10.96;67.44;101157.16;687296;28;46414;-62
2022/10/14 01:04:56;;;;;;;923.13;860.10;;;;;;;10.97;67.60;101166.91;690437;28;21527;-63
2022/10/14 01:05:18;;;;;;;923.50;860.40;;;;;;;10.95;67.12;101167.09;692391;28;44334;-64
2022/10/14 01:05:48;;;;;;;930.35;867.03;;;;;;;10.94;67.28;101167.25;691746;28;46274;-63
2022/10/14 01:06:19;;;;;;;927.60;864.42;;;;;;;10.92;67.29;101158.47;690334;28;137633;-63
2022/10/14 01:06:44;;;;;;;894.70;832.60;;;;;;;10.90;66.87;101155.94;691362;28;137440;-63
2022/10/14 01:07:10;;;;;;;891.25;828.97;;;;;;;10.92;67.06;101161.19;692258;28;90531;-63
2022/10/14 01:07:40;;;;;;;903.92;841.42;;;;;;;10.91;66.88;101163.06;691395;28;137880;-63
2022/10/14 01:08:05;;;;;;;916.72;853.83;;;;;;;10.90;66.84;101157.81;690889;28;160740;-63
2022/10/14 01:08:29;;;;;;;905.15;842.55;;;;;;;10.88;66.76;101157.97;694185;28;115000;-63
2022/10/14 01:08:55;;;;;;;904.22;841.67;;;;;;;10.88;66.85;101162.53;694646;28;115191;-63
2022/10/14 01:09:23;;;;;;;907.60;845.00;;;;;;;10.87;67.13;101160.84;696613;28;61437;-63
2022/10/14 01:09:52;;;;;;;903.22;840.78;;;;;;;10.86;67.28;101154.63;694088;28;138096;-63
2022/10/14 01:10:20;;;;;;;910.28;847.58;;;;;;;10.85;67.31;101158.31;694029;28;137506;-63
2022/10/14 01:10:44;;;;;;;915.38;852.45;;;;;;;10.84;67.43;101153.91;693618;28;138090;-63
2022/10/14 01:11:12;;;;;;;913.13;850.38;;;;;;;10.82;67.38;101161.34;692328;28;113569;-64
2022/10/14 01:11:37;;;;;;;905.03;842.47;;;;;;;10.81;67.15;101157.81;688380;28;136307;-63
2022/10/14 01:12:03;;;;;;;898.47;836.13;;;;;;;10.82;67.55;101159.50;688582;28;136389;-63
2022/10/14 01:12:31;;;;;;;901.78;839.28;;;;;;;10.81;67.40;101152.41;688379;28;136756;-62
2022/10/14 01:13:02;;;;;;;910.78;847.95;;;;;;;10.81;67.64;101157.81;691583;28;138067;-63
2022/10/14 01:13:30;;;;;;;897.03;834.78;;;;;;;10.80;67.46;101158.81;691398;28;158928;-62
2022/10/14 01:13:59;;;;;;;892.50;830.35;;;;;;;10.79;67.37;101154.41;690572;28;138037;-64
2022/10/14 01:14:24;;;;;;;895.70;833.47;;;;;;;10.76;67.32;101152.06;688596;28;137999;-64
2022/10/14 01:14:50;;;;;;;911.40;848.67;;;;;;;10.77;67.20;101153.75;689332;28;115197;-62
2022/10/14 01:15:16;;;;;;;909.05;846.35;;;;;;;10.77;67.32;101158.31;686304;28;137957;-63
2022/10/14 01:15:41;;;;;;;914.75;852.00;;;;;;;10.76;67.06;101154.75;689895;28;114952;-64
2022/10/14 01:16:08;;;;;;;905.17;842.75;;;;;;;10.73;66.93;101157.78;692103;28;115518;-64
2022/10/14 01:16:35;;;;;;;919.85;856.92;;;;;;;10.72;66.84;101153.44;691243;28;138048;-63
2022/10/14 01:17:03;;;;;;;921.28;857.97;;;;;;;10.65;66.95;101144.28;690051;28;160970;-63
2022/10/14 01:17:32;;;;;;;931.75;868.05;;;;;;;10.70;67.06;101160.84;690621;28;160969;-64
2022/10/14 01:18:14;;;;;;;920.42;857.33;;;;;;;10.69;67.53;101153.75;692870;28;98483;-63
2022/10/14 01:18:44;;;;;;;902.80;840.22;;;;;;;10.67;67.53;101153.06;690922;28;136010;-62
2022/10/14 01:19:32;;;;;;;886.55;824.50;;;;;;;10.66;67.53;101148.69;691058;28;137316;-63
2022/10/14 01:20:20;;;;;;;873.67;812.17;;;;;;;10.63;67.69;101143.63;690773;28;137541;-63
2022/10/14 01:20:52;;;;;;;893.65;831.47;;;;;;;10.63;68.02;101155.25;690579;28;160637;-63
2022/10/14 01:21:16;;;;;;;892.70;830.40;;;;;;;10.63;67.85;101149.84;691417;28;129910;-63
2022/10/14 01:21:41;;;;;;;882.10;820.10;;;;;;;10.63;67.71;101155.25;692962;28;90725;-63
2022/10/14 01:22:12;;;;;;;884.13;822.28;;;;;;;10.64;67.67;101148.00;687747;28;160913;-63
2022/10/14 01:22:36;;;;;;;904.42;841.83;;;;;;;10.64;67.95;101148.84;687920;28;160914;-65
2022/10/14 01:23:11;;;;;;;895.33;832.97;;;;;;;10.64;68.19;101146.16;692742;28;67480;-63
2022/10/14 01:23:51;;;;;;;895.08;832.78;;;;;;;10.63;68.29;101146.31;693131;28;138278;-64
2022/10/14 01:24:41;;;;;;;885.55;823.63;;;;;;;10.63;67.96;101151.72;693865;28;137483;-64
2022/10/14 01:25:08;;;;;;;903.90;841.53;;;;;;;10.60;68.29;101152.06;689015;28;137544;-64
2022/10/14 01:25:32;;;;;;;913.00;850.30;;;;;;;10.59;68.31;101148.50;694248;28;137902;-63
2022/10/14 01:25:57;;;;;;;911.03;848.40;;;;;;;10.59;68.22;101147.66;692646;28;113536;-65
2022/10/14 01:26:29;;;;;;;903.33;840.85;;;;;;;10.58;68.29;101148.66;691999;28;115154;-63
2022/10/14 01:27:16;;;;;;;901.22;838.70;;;;;;;10.58;68.34;101151.34;692444;28;137731;-63
2022/10/14 01:27:58;;;;;;;890.63;828.45;;;;;;;10.57;68.38;101144.28;691312;28;135884;-63
2022/10/14 01:28:26;;;;;;;898.65;836.15;;;;;;;10.57;68.36;101142.41;682863;28;137594;-63
2022/10/14 01:28:54;;;;;;;892.63;830.42;;;;;;;10.58;68.51;101144.13;693085;28;157809;-63
2022/10/14 01:29:28;;;;;;;894.53;832.17;;;;;;;10.58;68.76;101140.56;693091;28;159167;-64
2022/10/14 01:30:21;;;;;;;883.50;821.55;;;;;;;10.54;68.48;101136.53;693944;28;137790;-64
2022/10/14 01:30:43;;;;;;;882.08;820.17;;;;;;;10.59;68.41;101150.34;691334;28;137726;-64
2022/10/14 01:31:08;;;;;;;886.63;824.65;;;;;;;10.59;68.38;101139.56;694280;28;46602;-64
2022/10/14 01:31:32;;;;;;;898.47;835.95;;;;;;;10.61;68.39;101148.31;691790;28;115604;-64
2022/10/14 01:32:05;;;;;;;898.85;836.42;;;;;;;10.59;67.96;101143.09;692695;28;92157;-63
2022/10/14 01:32:29;;;;;;;889.70;827.50;;;;;;;10.60;67.79;101150.19;690641;28;137484;-63
2022/10/14 01:33:13;;;;;;;898.63;836.20;;;;;;;10.59;67.55;101142.25;696386;28;67383;-62
2022/10/14 01:33:36;;;;;;;882.28;820.33;;;;;;;10.58;67.74;101141.41;689845;28;137895;-64
2022/10/14 01:33:59;;;;;;;897.55;835.17;;;;;;;10.60;67.89;101147.50;693780;28;69690;-63
2022/10/14 01:34:24;;;;;;;908.28;845.75;;;;;;;10.59;67.43;101147.66;693437;28;68451;-63
2022/10/14 01:34:55;;;;;;;901.80;839.38;;;;;;;10.59;67.50;101150.34;688129;28;138472;-63
2022/10/14 01:35:23;;;;;;;894.28;832.05;;;;;;;10.58;67.40;101157.63;688088;28;135712;-63
2022/10/14 01:35:56;;;;;;;911.88;849.05;;;;;;;10.54;67.50;101144.63;687836;28;159230;-62
2022/10/14 01:36:25;;;;;;;890.70;828.63;;;;;;;10.54;67.26;101150.03;688431;28;61225;-63
2022/10/14 01:36:50;;;;;;;900.83;838.42;;;;;;;10.52;67.33;101149.34;684907;28;160858;-62
2022/10/14 01:37:15;;;;;;;901.95;839.25;;;;;;;10.51;67.38;101147.66;687546;28;115076;-63
2022/10/14 01:37:41;;;;;;;897.33;834.92;;;;;;;10.53;67.52;101153.72;689206;28;115965;-63
2022/10/14 01:38:07;;;;;;;903.20;840.63;;;;;;;10.51;67.33;101153.06;686496;28;161050;-63
2022/10/14 01:38:30;;;;;;;902.08;839.50;;;;;;;10.51;67.29;101147.66;691072;28;115174;-63
2022/10/14 01:38:57;;;;;;;908.88;846.15;;;;;;;10.48;67.21;101148.81;688573;28;136358;-62
2022/10/14 01:39:21;;;;;;;915.03;852.22;;;;;;;10.48;67.36;101159.63;686708;28;113552;-63
2022/10/14 01:39:46;;;;;;;912.50;849.70;;;;;;;10.48;67.37;101158.78;687383;28;90699;-63
2022/10/14 01:40:10;;;;;;;898.30;835.92;;;;;;;10.45;67.70;101152.72;690093;28;92379;-63
2022/10/14 01:40:34;;;;;;;892.67;830.38;;;;;;;10.45;67.30;101157.25;689060;28;115112;-64
2022/10/14 01:40:57;;;;;;;903.10;840.63;;;;;;;10.43;67.64;101148.47;690144;28;92293;-63
2022/10/14 01:41:22;;;;;;;897.80;835.45;;;;;;;10.42;67.40;101155.75;691308;28;69394;-64
2022/10/14 01:41:45;;;;;;;910.55;847.72;;;;;;;10.40;67.25;101152.34;694275;28;115388;-63
2022/10/14 01:42:08;;;;;;;901.63;839.17;;;;;;;10.40;67.20;101157.75;692789;28;92268;-62
2022/10/14 01:42:33;;;;;;;921.55;858.45;;;;;;;10.39;67.49;101155.22;691067;28;69490;-63
2022/10/14 01:42:54;;;;;;;900.95;838.58;;;;;;;10.38;67.87;101153.53;689562;28;92337;-64
2022/10/14 01:43:17;;;;;;;902.83;840.50;;;;;;;10.37;67.93;101151.84;688917;28;46373;-63
2022/10/14 01:43:40;;;;;;;918.00;855.20;;;;;;;10.36;67.92;101147.44;687405;28;67452;-63
2022/10/14 01:44:04;;;;;;;923.47;860.42;;;;;;;10.36;67.92;101148.31;689750;28;69219;-63
2022/10/14 01:44:26;;;;;;;934.25;870.65;;;;;;;10.36;68.43;101142.03;691545;28;92047;-64
2022/10/14 01:44:50;;;;;;;927.90;864.60;;;;;;;10.36;68.58;101144.75;695928;28;44369;-64
2022/10/14 01:45:17;;;;;;;926.08;862.78;;;;;;;10.35;68.21;101143.91;697404;28;93060;-64
2022/10/14 01:45:40;;;;;;;915.92;852.90;;;;;;;10.38;68.32;101145.44;694888;28;137585;-64
2022/10/14 01:46:03;;;;;;;915.85;852.85;;;;;;;10.37;68.55;101152.69;696231;28;69412;-63
2022/10/14 01:46:27;;;;;;;918.08;855.00;;;;;;;10.32;68.18;101138.81;695367;28;92047;-63
2022/10/14 01:46:51;;;;;;;919.53;856.33;;;;;;;10.34;68.71;101146.78;696388;28;69429;-62
2022/10/14 01:47:13;;;;;;;917.53;854.22;;;;;;;10.35;68.49;101149.31;694940;28;93240;-62
2022/10/14 01:47:37;;;;;;;900.03;837.60;;;;;;;10.35;68.60;101143.06;689386;28;90223;-61
2022/10/14 01:47:59;;;;;;;913.78;850.90;;;;;;;10.35;68.59;101148.47;688922;28;45349;-61
2022/10/14 01:48:32;;;;;;;921.60;858.47;;;;;;;10.36;68.63;101150.16;690513;28;60666;-62
2022/10/14 01:48:55;;;;;;;905.17;842.55;;;;;;;10.36;68.51;101152.84;688301;28;138889;-62
2022/10/14 01:49:29;;;;;;;917.83;854.78;;;;;;;10.35;68.67;101149.31;690846;28;69371;-61
2022/10/14 01:49:55;;;;;;;926.92;863.65;;;;;;;10.35;68.57;101140.38;691301;28;131146;-62
2022/10/14 01:50:20;;;;;;;916.30;853.30;;;;;;;10.32;68.37;101143.38;686688;28;114421;-61